createdAt,value
2022-08-17T00:00:43.800Z,0.00
2022-08-17T00:01:28.875Z,0.00
2022-08-17T00:02:28.909Z,0.00
2022-08-17T00:03:28.821Z,0.00
2022-08-17T00:04:28.805Z,0.00
2022-08-17T00:05:28.810Z,0.00
2022-08-17T00:06:28.783Z,0.00
2022-08-17T00:07:28.782Z,0.00
2022-08-17T00:08:28.762Z,0.00
2022-08-17T00:09:28.760Z,0.00
2022-08-17T00:10:28.764Z,0.00
2022-08-17T00:11:34.738Z,0.00
2022-08-17T00:12:43.550Z,0.00
2022-08-17T00:13:30.707Z,0.00
2022-08-17T00:14:28.698Z,0.00
2022-08-17T00:15:28.687Z,0.00
2022-08-17T00:16:56.359Z,0.00
2022-08-17T00:17:29.708Z,0.00
2022-08-17T00:19:01.011Z,0.00
2022-08-17T00:19:29.684Z,0.00
2022-08-17T00:20:30.632Z,0.00
2022-08-17T00:22:31.863Z,0.00
2022-08-17T00:22:33.912Z,0.00
2022-08-17T00:23:29.649Z,0.00
2022-08-17T00:24:28.590Z,0.00
2022-08-17T00:26:03.320Z,0.00
2022-08-17T00:27:03.306Z,0.00
2022-08-17T00:28:03.302Z,0.00
2022-08-17T00:29:03.285Z,0.00
2022-08-17T00:30:03.307Z,0.00
2022-08-17T00:31:03.278Z,0.00
2022-08-17T00:33:12.685Z,0.00
2022-08-17T00:33:14.414Z,0.00
2022-08-17T00:34:04.288Z,0.00
2022-08-17T00:35:03.245Z,0.00
2022-08-17T00:36:03.214Z,0.00
2022-08-17T00:37:03.199Z,0.00
2022-08-17T00:38:03.198Z,0.00
2022-08-17T00:39:03.180Z,0.00
2022-08-17T00:40:03.260Z,0.00
2022-08-17T00:41:03.155Z,0.00
2022-08-17T00:42:03.143Z,0.00
2022-08-17T00:43:03.130Z,0.00
2022-08-17T00:44:03.126Z,0.00
2022-08-17T00:45:03.111Z,0.00
2022-08-17T00:46:03.107Z,0.00
2022-08-17T00:47:03.090Z,0.00
2022-08-17T00:48:03.097Z,0.00
2022-08-17T00:49:03.070Z,0.00
2022-08-17T00:50:03.062Z,0.00
2022-08-17T00:51:03.047Z,0.00
2022-08-17T00:52:03.247Z,0.00
2022-08-17T00:53:10.080Z,0.00
2022-08-17T00:54:03.025Z,0.00
2022-08-17T00:55:03.011Z,0.00
2022-08-17T00:56:03.000Z,0.00
2022-08-17T00:57:02.986Z,0.00
2022-08-17T00:58:02.971Z,0.00
2022-08-17T00:59:02.968Z,0.00
2022-08-17T01:00:03.922Z,0.00
2022-08-17T01:01:03.177Z,0.00
2022-08-17T01:02:02.932Z,0.00
2022-08-17T01:03:03.121Z,0.00
2022-08-17T01:04:02.912Z,0.00
2022-08-17T01:05:02.903Z,0.00
2022-08-17T01:06:02.888Z,0.00
2022-08-17T01:07:02.879Z,0.00
2022-08-17T01:08:02.865Z,0.00
2022-08-17T01:09:02.856Z,0.00
2022-08-17T01:10:02.844Z,0.00
2022-08-17T01:11:02.872Z,0.00
2022-08-17T01:12:02.824Z,0.00
2022-08-17T01:13:02.812Z,0.00
2022-08-17T01:14:02.806Z,0.00
2022-08-17T01:15:02.795Z,0.00
2022-08-17T01:16:02.786Z,0.00
2022-08-17T01:17:02.771Z,0.00
2022-08-17T01:18:02.768Z,0.00
2022-08-17T01:19:02.752Z,0.00
2022-08-17T01:20:02.767Z,0.00
2022-08-17T01:21:03.135Z,0.00
2022-08-17T01:22:02.723Z,0.00
2022-08-17T01:23:08.720Z,0.00
2022-08-17T01:24:02.698Z,0.00
2022-08-17T01:25:02.685Z,0.00
2022-08-17T01:26:02.676Z,0.00
2022-08-17T01:27:02.661Z,0.00
2022-08-17T01:28:04.656Z,0.00
2022-08-17T01:29:02.645Z,0.00
2022-08-17T01:30:02.634Z,0.00
2022-08-17T01:31:02.620Z,0.00
2022-08-17T01:32:02.611Z,0.00
2022-08-17T01:33:02.597Z,0.00
2022-08-17T01:34:02.585Z,0.00
2022-08-17T01:35:08.585Z,0.00
2022-08-17T01:36:02.563Z,0.00
2022-08-17T01:37:02.554Z,0.00
2022-08-17T01:38:02.556Z,0.00
2022-08-17T01:39:02.531Z,0.00
2022-08-17T01:40:02.622Z,0.00
2022-08-17T01:41:02.518Z,0.00
2022-08-17T01:42:02.499Z,0.00
2022-08-17T01:43:02.690Z,0.00
2022-08-17T01:44:02.481Z,0.00
2022-08-17T01:45:02.473Z,0.00
2022-08-17T01:46:04.030Z,0.00
2022-08-17T01:47:02.444Z,0.00
2022-08-17T01:48:02.443Z,0.00
2022-08-17T01:49:02.426Z,0.00
2022-08-17T01:50:02.421Z,0.00
2022-08-17T01:51:02.404Z,0.00
2022-08-17T01:52:02.460Z,0.00
2022-08-17T01:53:02.381Z,0.00
2022-08-17T01:54:02.371Z,0.00
2022-08-17T01:55:02.360Z,0.00
2022-08-17T01:56:02.356Z,0.00
2022-08-17T01:57:02.342Z,0.00
2022-08-17T01:58:02.332Z,0.00
2022-08-17T01:59:02.321Z,0.00
2022-08-17T02:00:08.323Z,0.00
2022-08-17T02:01:02.374Z,0.00
2022-08-17T02:02:02.288Z,0.00
2022-08-17T02:03:02.478Z,0.00
2022-08-17T02:04:02.271Z,0.00
2022-08-17T02:05:02.270Z,0.00
2022-08-17T02:06:02.245Z,0.00
2022-08-17T02:07:02.233Z,0.00
2022-08-17T02:08:02.221Z,0.00
2022-08-17T02:09:03.870Z,0.00
2022-08-17T02:10:02.250Z,0.00
2022-08-17T02:11:02.190Z,0.00
2022-08-17T02:12:37.376Z,0.00
2022-08-17T02:13:03.209Z,0.00
2022-08-17T02:14:02.955Z,0.00
2022-08-17T02:15:08.162Z,0.00
2022-08-17T02:16:02.141Z,0.00
2022-08-17T02:17:02.126Z,0.00
2022-08-17T02:18:02.115Z,0.00
2022-08-17T02:19:02.113Z,0.00
2022-08-17T02:20:02.097Z,0.00
2022-08-17T02:21:08.106Z,0.00
2022-08-17T02:22:02.079Z,0.00
2022-08-17T02:23:02.063Z,0.00
2022-08-17T02:24:02.056Z,0.00
2022-08-17T02:25:02.519Z,0.00
2022-08-17T02:26:02.040Z,0.00
2022-08-17T02:27:02.021Z,0.00
2022-08-17T02:28:02.012Z,0.00
2022-08-17T02:29:02.026Z,0.00
2022-08-17T02:30:01.988Z,0.00
2022-08-17T02:31:03.167Z,0.00
2022-08-17T02:32:02.005Z,0.00
2022-08-17T02:33:04.153Z,0.00
2022-08-17T02:34:04.429Z,0.00
2022-08-17T02:35:02.188Z,0.00
2022-08-17T02:36:01.933Z,0.00
2022-08-17T02:37:01.913Z,0.00
2022-08-17T02:38:01.908Z,0.00
2022-08-17T02:39:08.103Z,0.00
2022-08-17T02:40:01.953Z,0.00
2022-08-17T02:41:01.873Z,0.00
2022-08-17T02:42:01.857Z,0.00
2022-08-17T02:43:01.843Z,0.00
2022-08-17T02:44:01.833Z,0.00
2022-08-17T02:45:01.835Z,0.00
2022-08-17T02:46:01.817Z,0.00
2022-08-17T02:47:01.805Z,0.00
2022-08-17T02:48:01.801Z,0.00
2022-08-17T02:49:01.777Z,0.00
2022-08-17T02:50:01.772Z,0.00
2022-08-17T02:51:01.757Z,0.00
2022-08-17T02:52:01.748Z,0.00
2022-08-17T02:53:02.887Z,0.00
2022-08-17T02:54:40.128Z,0.00
2022-08-17T02:55:02.758Z,0.00
2022-08-17T02:56:01.712Z,0.00
2022-08-17T02:57:01.699Z,0.00
2022-08-17T02:58:01.917Z,0.00
2022-08-17T02:59:01.681Z,0.00
2022-08-17T03:00:07.674Z,0.00
2022-08-17T03:01:01.653Z,0.00
2022-08-17T03:02:01.731Z,0.00
2022-08-17T03:03:01.629Z,0.00
2022-08-17T03:04:01.621Z,0.00
2022-08-17T03:05:01.625Z,0.00
2022-08-17T03:06:01.851Z,0.00
2022-08-17T03:07:01.596Z,0.00
2022-08-17T03:08:01.581Z,0.00
2022-08-17T03:09:01.574Z,0.00
2022-08-17T03:10:01.766Z,0.00
2022-08-17T03:11:01.555Z,0.00
2022-08-17T03:12:01.537Z,0.00
2022-08-17T03:13:01.525Z,0.00
2022-08-17T03:14:01.529Z,0.00
2022-08-17T03:15:01.516Z,0.00
2022-08-17T03:16:07.506Z,0.00
2022-08-17T03:17:01.482Z,0.00
2022-08-17T03:18:01.471Z,0.00
2022-08-17T03:19:01.462Z,0.00
2022-08-17T03:20:01.449Z,0.00
2022-08-17T03:21:01.434Z,0.00
2022-08-17T03:22:01.483Z,0.00
2022-08-17T03:23:03.162Z,0.00
2022-08-17T03:24:01.415Z,0.00
2022-08-17T03:25:01.396Z,0.00
2022-08-17T03:26:01.385Z,0.00
2022-08-17T03:27:01.373Z,0.00
2022-08-17T03:28:01.363Z,0.00
2022-08-17T03:29:01.359Z,0.00
2022-08-17T03:30:01.343Z,0.00
2022-08-17T03:31:01.336Z,0.00
2022-08-17T03:32:01.334Z,0.00
2022-08-17T03:33:01.310Z,0.00
2022-08-17T03:34:01.303Z,0.00
2022-08-17T03:35:01.289Z,0.00
2022-08-17T03:36:01.280Z,0.00
2022-08-17T03:37:07.272Z,0.00
2022-08-17T03:38:01.507Z,0.00
2022-08-17T03:39:01.248Z,0.00
2022-08-17T03:40:01.312Z,0.00
2022-08-17T03:41:01.220Z,0.00
2022-08-17T03:42:01.212Z,0.00
2022-08-17T03:43:01.204Z,0.00
2022-08-17T03:44:01.396Z,0.00
2022-08-17T03:45:01.184Z,0.00
2022-08-17T03:46:01.170Z,0.00
2022-08-17T03:47:01.161Z,0.00
2022-08-17T03:48:07.162Z,0.00
2022-08-17T03:49:01.141Z,0.00
2022-08-17T03:50:01.130Z,0.00
2022-08-17T03:51:01.124Z,0.00
2022-08-17T03:52:01.311Z,0.00
2022-08-17T03:53:01.091Z,0.00
2022-08-17T03:54:01.083Z,0.00
2022-08-17T03:55:01.073Z,0.00
2022-08-17T03:56:01.065Z,0.00
2022-08-17T03:57:01.054Z,0.00
2022-08-17T03:58:01.041Z,0.00
2022-08-17T03:59:01.029Z,0.00
2022-08-17T04:00:01.021Z,0.00
2022-08-17T04:01:01.112Z,0.00
2022-08-17T04:02:01.000Z,0.00
2022-08-17T04:03:00.985Z,0.00
2022-08-17T04:04:00.935Z,1.00
2022-08-17T04:05:00.923Z,1.00
2022-08-17T04:06:00.905Z,1.00
2022-08-17T04:07:00.893Z,1.00
2022-08-17T04:08:00.881Z,1.00
2022-08-17T04:09:00.871Z,2.00
2022-08-17T04:10:00.873Z,2.00
2022-08-17T04:11:00.847Z,2.00
2022-08-17T04:12:02.261Z,1.00
2022-08-17T04:13:00.825Z,1.00
2022-08-17T04:14:00.821Z,2.00
2022-08-17T04:15:00.806Z,2.00
2022-08-17T04:16:00.793Z,4.00
2022-08-17T04:17:00.790Z,5.00
2022-08-17T04:18:00.778Z,7.00
2022-08-17T04:19:00.775Z,6.00
2022-08-17T04:20:00.758Z,4.00
2022-08-17T04:21:00.769Z,6.00
2022-08-17T04:22:00.726Z,9.00
2022-08-17T04:23:00.745Z,10.00
2022-08-17T04:24:00.711Z,10.00
2022-08-17T04:25:00.900Z,11.00
2022-08-17T04:26:00.710Z,11.00
2022-08-17T04:27:00.674Z,11.00
2022-08-17T04:28:00.671Z,14.00
2022-08-17T04:29:00.654Z,10.00
2022-08-17T04:30:00.650Z,6.00
2022-08-17T04:31:00.638Z,9.00
2022-08-17T04:32:00.638Z,11.00
2022-08-17T04:33:05.765Z,14.00
2022-08-17T04:34:00.605Z,16.00
2022-08-17T04:35:00.594Z,19.00
2022-08-17T04:36:00.583Z,28.00
2022-08-17T04:37:00.573Z,31.00
2022-08-17T04:38:00.563Z,33.00
2022-08-17T04:39:00.548Z,30.00
2022-08-17T04:40:03.906Z,34.00
2022-08-17T04:41:00.524Z,38.00
2022-08-17T04:42:00.525Z,38.00
2022-08-17T04:43:00.987Z,35.00
2022-08-17T04:44:00.502Z,33.00
2022-08-17T04:45:00.497Z,34.00
2022-08-17T04:46:00.476Z,36.00
2022-08-17T04:47:00.668Z,34.00
2022-08-17T04:48:06.460Z,30.00
2022-08-17T04:49:00.441Z,30.00
2022-08-17T04:50:00.433Z,30.00
2022-08-17T04:51:06.486Z,37.00
2022-08-17T04:52:04.152Z,44.00
2022-08-17T04:53:06.416Z,53.00
2022-08-17T04:54:00.393Z,63.00
2022-08-17T04:55:00.378Z,74.00
2022-08-17T04:56:00.365Z,87.00
2022-08-17T04:57:00.358Z,100.00
2022-08-17T04:58:00.345Z,115.00
2022-08-17T04:59:00.340Z,139.00
2022-08-17T05:00:00.327Z,158.00
2022-08-17T05:01:00.468Z,180.00
2022-08-17T05:02:00.302Z,200.00
2022-08-17T05:03:00.289Z,211.00
2022-08-17T05:04:00.286Z,206.00
2022-08-17T05:05:01.306Z,192.00
2022-08-17T05:06:00.269Z,175.00
2022-08-17T05:07:00.243Z,171.00
2022-08-17T05:08:00.236Z,171.00
2022-08-17T05:09:00.224Z,182.00
2022-08-17T05:10:00.238Z,198.00
2022-08-17T05:11:00.202Z,215.00
2022-08-17T05:12:00.193Z,221.00
2022-08-17T05:13:00.178Z,210.00
2022-08-17T05:14:00.181Z,212.00
2022-08-17T05:15:00.165Z,227.00
2022-08-17T05:16:00.146Z,233.00
2022-08-17T05:17:09.406Z,239.00
2022-08-17T05:18:00.142Z,239.00
2022-08-17T05:19:00.114Z,227.00
2022-08-17T05:20:00.136Z,210.00
2022-08-17T05:21:06.103Z,185.00
2022-08-17T05:22:00.126Z,156.00
2022-08-17T05:23:00.099Z,135.00
2022-08-17T05:24:00.068Z,131.00
2022-08-17T05:25:00.077Z,129.00
2022-08-17T05:26:00.038Z,133.00
2022-08-17T05:27:06.836Z,140.00
2022-08-17T05:28:06.047Z,154.00
2022-08-17T05:29:02.514Z,161.00
2022-08-17T05:30:00.002Z,152.00
2022-08-17T05:30:59.991Z,141.00
2022-08-17T05:31:59.978Z,135.00
2022-08-17T05:32:59.974Z,119.00
2022-08-17T05:34:05.970Z,99.00
2022-08-17T05:34:59.954Z,81.00
2022-08-17T05:35:59.939Z,70.00
2022-08-17T05:37:05.937Z,58.00
2022-08-17T05:37:59.914Z,51.00
2022-08-17T05:38:59.907Z,45.00
2022-08-17T05:40:00.074Z,49.00
2022-08-17T05:40:59.887Z,55.00
2022-08-17T05:41:59.873Z,57.00
2022-08-17T05:42:59.860Z,59.00
2022-08-17T05:44:05.913Z,75.00
2022-08-17T05:44:59.844Z,99.00
2022-08-17T05:46:00.148Z,124.00
2022-08-17T05:46:59.818Z,140.00
2022-08-17T05:48:01.810Z,148.00
2022-08-17T05:48:59.800Z,148.00
2022-08-17T05:49:59.785Z,133.00
2022-08-17T05:50:59.777Z,122.00
2022-08-17T05:51:59.765Z,152.00
2022-08-17T05:52:59.752Z,187.00
2022-08-17T05:53:59.742Z,230.00
2022-08-17T05:54:59.733Z,232.00
2022-08-17T05:55:59.927Z,210.00
2022-08-17T05:56:59.717Z,190.00
2022-08-17T05:57:59.698Z,183.00
2022-08-17T05:58:59.695Z,205.00
2022-08-17T05:59:59.678Z,238.00
2022-08-17T06:00:59.699Z,236.00
2022-08-17T06:01:59.864Z,225.00
2022-08-17T06:03:05.655Z,234.00
2022-08-17T06:03:59.652Z,241.00
2022-08-17T06:04:59.630Z,258.00
2022-08-17T06:05:59.613Z,262.00
2022-08-17T06:06:59.614Z,262.00
2022-08-17T06:07:59.793Z,301.00
2022-08-17T06:08:59.602Z,327.00
2022-08-17T06:10:05.580Z,283.00
2022-08-17T06:10:59.562Z,230.00
2022-08-17T06:11:59.558Z,200.00
2022-08-17T06:12:59.547Z,192.00
2022-08-17T06:13:59.544Z,188.00
2022-08-17T06:14:59.525Z,177.00
2022-08-17T06:15:59.763Z,170.00
2022-08-17T06:17:05.709Z,172.00
2022-08-17T06:17:59.493Z,179.00
2022-08-17T06:18:59.476Z,199.00
2022-08-17T06:19:59.729Z,245.00
2022-08-17T06:20:59.456Z,234.00
2022-08-17T06:21:59.446Z,254.00
2022-08-17T06:22:59.436Z,299.00
2022-08-17T06:23:59.420Z,389.00
2022-08-17T06:24:59.413Z,447.00
2022-08-17T06:25:59.629Z,507.00
2022-08-17T06:26:59.618Z,433.00
2022-08-17T06:27:59.377Z,361.00
2022-08-17T06:28:59.371Z,324.00
2022-08-17T06:29:59.354Z,331.00
2022-08-17T06:31:01.226Z,349.00
2022-08-17T06:31:59.337Z,304.00
2022-08-17T06:32:59.328Z,278.00
2022-08-17T06:33:59.310Z,334.00
2022-08-17T06:34:59.319Z,443.00
2022-08-17T06:35:59.300Z,623.00
2022-08-17T06:36:59.285Z,744.00
2022-08-17T06:37:59.274Z,729.00
2022-08-17T06:38:59.265Z,615.00
2022-08-17T06:39:59.321Z,666.00
2022-08-17T06:40:59.241Z,737.00
2022-08-17T06:41:59.226Z,791.00
2022-08-17T06:43:05.927Z,777.00
2022-08-17T06:44:00.245Z,689.00
2022-08-17T06:44:59.202Z,617.00
2022-08-17T06:45:59.181Z,608.00
2022-08-17T06:46:59.184Z,681.00
2022-08-17T06:47:59.162Z,766.00
2022-08-17T06:48:59.160Z,760.00
2022-08-17T06:49:59.148Z,755.00
2022-08-17T06:50:59.134Z,822.00
2022-08-17T06:52:05.330Z,877.00
2022-08-17T06:52:59.433Z,912.00
2022-08-17T06:53:59.096Z,954.00
2022-08-17T06:54:59.086Z,1077.00
2022-08-17T06:55:59.072Z,941.00
2022-08-17T06:56:59.064Z,902.00
2022-08-17T06:57:59.252Z,950.00
2022-08-17T06:58:59.041Z,1090.00
2022-08-17T06:59:59.165Z,1161.00
2022-08-17T07:00:59.365Z,1219.00
2022-08-17T07:01:59.008Z,1311.00
2022-08-17T07:02:58.998Z,1484.00
2022-08-17T07:03:59.197Z,1733.00
2022-08-17T07:05:00.013Z,1876.00
2022-08-17T07:05:58.964Z,2090.00
2022-08-17T07:06:58.962Z,2341.00
2022-08-17T07:07:58.949Z,2662.00
2022-08-17T07:08:58.952Z,2606.00
2022-08-17T07:09:58.922Z,2528.00
2022-08-17T07:10:58.917Z,2549.00
2022-08-17T07:11:58.905Z,2672.00
2022-08-17T07:12:58.895Z,2885.00
2022-08-17T07:13:58.883Z,3034.00
2022-08-17T07:14:58.872Z,3055.00
2022-08-17T07:15:58.862Z,3280.00
2022-08-17T07:16:59.050Z,3873.00
2022-08-17T07:17:59.106Z,4164.00
2022-08-17T07:18:58.826Z,4275.00
2022-08-17T07:19:59.022Z,4063.00
2022-08-17T07:20:58.807Z,3858.00
2022-08-17T07:21:58.795Z,3590.00
2022-08-17T07:23:00.410Z,3355.00
2022-08-17T07:23:58.771Z,3217.00
2022-08-17T07:24:58.885Z,3218.00
2022-08-17T07:25:58.749Z,3223.00
2022-08-17T07:26:58.743Z,3288.00
2022-08-17T07:27:58.737Z,3296.00
2022-08-17T07:28:58.721Z,3030.00
2022-08-17T07:29:58.706Z,2943.00
2022-08-17T07:31:04.725Z,2940.00
2022-08-17T07:31:58.685Z,2906.00
2022-08-17T07:32:58.674Z,2829.00
2022-08-17T07:33:58.664Z,2719.00
2022-08-17T07:35:04.664Z,2652.00
2022-08-17T07:35:58.642Z,2603.00
2022-08-17T07:37:04.638Z,2526.00
2022-08-17T07:37:58.621Z,2415.00
2022-08-17T07:38:58.615Z,2442.00
2022-08-17T07:40:14.778Z,2387.00
2022-08-17T07:41:00.592Z,2331.00
2022-08-17T07:41:59.194Z,2426.00
2022-08-17T07:42:58.571Z,2432.00
2022-08-17T07:43:58.565Z,2455.00
2022-08-17T07:44:58.557Z,2509.00
2022-08-17T07:45:58.548Z,2569.00
2022-08-17T07:46:58.529Z,2604.00
2022-08-17T07:47:58.728Z,2600.00
2022-08-17T07:48:58.508Z,2574.00
2022-08-17T07:49:58.498Z,2673.00
2022-08-17T07:50:58.488Z,2793.00
2022-08-17T07:52:00.043Z,2039.00
2022-08-17T07:52:59.512Z,2835.00
2022-08-17T07:54:13.241Z,3690.00
2022-08-17T07:55:00.449Z,2720.00
2022-08-17T07:55:58.427Z,2262.00
2022-08-17T07:56:58.425Z,1931.00
2022-08-17T07:57:58.417Z,2233.00
2022-08-17T07:58:58.420Z,2493.00
2022-08-17T07:59:58.389Z,2538.00
2022-08-17T08:00:58.386Z,2824.00
2022-08-17T08:01:58.661Z,3121.00
2022-08-17T08:03:04.378Z,3339.00
2022-08-17T08:03:58.344Z,4106.00
2022-08-17T08:05:00.935Z,2893.00
2022-08-17T08:05:58.345Z,4619.00
2022-08-17T08:06:58.316Z,4004.00
2022-08-17T08:07:58.306Z,3378.00
2022-08-17T08:08:58.292Z,3187.00
2022-08-17T08:09:58.283Z,5545.00
2022-08-17T08:10:58.275Z,7073.00
2022-08-17T08:11:58.262Z,7113.00
2022-08-17T08:12:58.247Z,4161.00
2022-08-17T08:13:58.238Z,6897.00
2022-08-17T08:14:58.230Z,7150.00
2022-08-17T08:16:32.910Z,7050.00
2022-08-17T08:17:32.895Z,7037.00
2022-08-17T08:18:53.255Z,7302.00
2022-08-17T08:19:33.908Z,7308.00
2022-08-17T08:20:50.982Z,6793.00
2022-08-17T08:21:40.100Z,6675.00
2022-08-17T08:22:33.092Z,6860.00
2022-08-17T08:24:11.792Z,5441.00
2022-08-17T08:25:11.762Z,6624.00
2022-08-17T08:26:14.128Z,4871.00
2022-08-17T08:27:12.570Z,3878.00
2022-08-17T08:28:11.524Z,3692.00
2022-08-17T08:29:11.523Z,7749.00
2022-08-17T08:30:11.504Z,4367.00
2022-08-17T08:31:11.499Z,2743.00
2022-08-17T08:32:11.491Z,7630.00
2022-08-17T08:33:11.476Z,4811.00
2022-08-17T08:35:00.658Z,2040.00
2022-08-17T08:35:12.492Z,7248.00
2022-08-17T08:36:11.443Z,5817.00
2022-08-17T08:37:17.723Z,5106.00
2022-08-17T08:38:12.465Z,6680.00
2022-08-17T08:39:11.616Z,7670.00
2022-08-17T08:40:11.662Z,7826.00
2022-08-17T08:41:11.395Z,6183.00
2022-08-17T08:42:11.386Z,5114.00
2022-08-17T08:43:11.382Z,2646.00
2022-08-17T08:44:11.368Z,5654.00
2022-08-17T08:45:11.357Z,6207.00
2022-08-17T08:46:11.345Z,7770.00
2022-08-17T08:47:11.336Z,12022.00
2022-08-17T08:48:23.176Z,7603.00
2022-08-17T08:49:18.563Z,6638.00
2022-08-17T08:50:37.232Z,6621.00
2022-08-17T08:51:18.351Z,6117.00
2022-08-17T08:52:11.287Z,6127.00
2022-08-17T08:53:17.285Z,5923.00
2022-08-17T08:54:11.268Z,5355.00
2022-08-17T08:55:11.281Z,5646.00
2022-08-17T08:56:11.258Z,5931.00
2022-08-17T08:57:24.201Z,5606.00
2022-08-17T08:58:31.314Z,5836.00
2022-08-17T08:59:12.265Z,5491.00
2022-08-17T09:00:11.217Z,5074.00
2022-08-17T09:01:16.753Z,5280.00
2022-08-17T09:02:11.197Z,4885.00
2022-08-17T09:03:11.189Z,5447.00
2022-08-17T09:04:24.055Z,4879.00
2022-08-17T09:05:14.788Z,4795.00
2022-08-17T09:06:32.228Z,4525.00
2022-08-17T09:07:11.138Z,4320.00
2022-08-17T09:08:11.138Z,4116.00
2022-08-17T09:09:11.151Z,4365.00
2022-08-17T09:10:11.117Z,4481.00
2022-08-17T09:12:01.838Z,4731.00
2022-08-17T09:12:56.820Z,4441.00
2022-08-17T09:13:54.605Z,4683.00
2022-08-17T09:14:49.959Z,5112.00
2022-08-17T09:15:49.757Z,5467.00
2022-08-17T09:16:49.939Z,5320.00
2022-08-17T09:18:21.265Z,6518.00
2022-08-17T09:19:03.387Z,7248.00
2022-08-17T09:19:50.765Z,7749.00
2022-08-17T09:20:55.706Z,8373.00
2022-08-17T09:21:49.690Z,11343.00
2022-08-17T09:22:49.680Z,9308.00
2022-08-17T09:23:49.669Z,12702.00
2022-08-17T09:24:49.670Z,9740.00
2022-08-17T09:25:49.651Z,11466.00
2022-08-17T09:26:49.647Z,11352.00
2022-08-17T09:27:49.842Z,8629.00
2022-08-17T09:28:49.620Z,10069.00
2022-08-17T09:29:49.812Z,9326.00
2022-08-17T09:30:50.008Z,6172.00
2022-08-17T09:31:49.791Z,5252.00
2022-08-17T09:32:49.583Z,6106.00
2022-08-17T09:33:49.577Z,6139.00
2022-08-17T09:34:49.761Z,7574.00
2022-08-17T09:35:49.552Z,6327.00
2022-08-17T09:36:49.539Z,6857.00
2022-08-17T09:37:49.811Z,9286.00
2022-08-17T09:38:49.722Z,7231.00
2022-08-17T09:39:49.571Z,9367.00
2022-08-17T09:40:49.510Z,8852.00
2022-08-17T09:41:55.509Z,6764.00
2022-08-17T09:42:49.486Z,6198.00
2022-08-17T09:43:49.478Z,6600.00
2022-08-17T09:44:49.469Z,6530.00
2022-08-17T09:45:49.472Z,6793.00
2022-08-17T09:46:49.449Z,10320.00
2022-08-17T09:47:49.564Z,11883.00
2022-08-17T09:48:49.426Z,8313.00
2022-08-17T09:49:49.416Z,6770.00
2022-08-17T09:51:05.530Z,6347.00
2022-08-17T09:51:50.442Z,6134.00
2022-08-17T09:52:49.388Z,5797.00
2022-08-17T09:53:49.817Z,5877.00
2022-08-17T09:54:55.578Z,5802.00
2022-08-17T09:55:49.359Z,5836.00
2022-08-17T09:57:05.718Z,6015.00
2022-08-17T09:57:50.580Z,6083.00
2022-08-17T09:58:49.333Z,6420.00
2022-08-17T09:59:49.317Z,6143.00
2022-08-17T10:00:49.341Z,5957.00
2022-08-17T10:01:49.303Z,5654.00
2022-08-17T10:02:49.290Z,5688.00
2022-08-17T10:03:49.281Z,5954.00
2022-08-17T10:04:49.276Z,6392.00
2022-08-17T10:05:49.262Z,4947.00
2022-08-17T10:06:49.255Z,7268.00
2022-08-17T10:07:49.349Z,11936.00
2022-08-17T10:08:49.233Z,7989.00
2022-08-17T10:09:49.225Z,7068.00
2022-08-17T10:10:56.656Z,5855.00
2022-08-17T10:11:50.361Z,8017.00
2022-08-17T10:12:49.195Z,6748.00
2022-08-17T10:13:53.307Z,5878.00
2022-08-17T10:14:53.456Z,5003.00
2022-08-17T10:15:49.164Z,2321.00
2022-08-17T10:16:49.155Z,4911.00
2022-08-17T10:17:49.478Z,4959.00
2022-08-17T10:18:49.139Z,9079.00
2022-08-17T10:19:49.345Z,79197.00
2022-08-17T10:20:49.317Z,80793.00
2022-08-17T10:22:35.150Z,81357.00
2022-08-17T10:23:23.982Z,79546.00
2022-08-17T10:24:24.173Z,78082.00
2022-08-17T10:25:26.139Z,75158.00
2022-08-17T10:26:24.785Z,74958.00
2022-08-17T10:27:23.740Z,78418.00
2022-08-17T10:28:28.821Z,81701.00
2022-08-17T10:29:25.924Z,76907.00
2022-08-17T10:30:23.713Z,82853.00
2022-08-17T10:31:34.889Z,74957.00
2022-08-17T10:32:25.691Z,77493.00
2022-08-17T10:33:29.694Z,67565.00
2022-08-17T10:34:23.674Z,8169.00
2022-08-17T10:35:23.877Z,74273.00
2022-08-17T10:36:23.664Z,33350.00
2022-08-17T10:37:23.654Z,18467.00
2022-08-17T10:38:24.617Z,23315.00
2022-08-17T10:39:23.650Z,26462.00
2022-08-17T10:40:23.684Z,18214.00
2022-08-17T10:41:29.880Z,16148.00
2022-08-17T10:42:30.311Z,7418.00
2022-08-17T10:43:24.726Z,19862.00
2022-08-17T10:44:39.884Z,9908.00
2022-08-17T10:45:24.619Z,4898.00
2022-08-17T10:46:31.047Z,9371.00
2022-08-17T10:47:23.564Z,68972.00
2022-08-17T10:48:24.159Z,24896.00
2022-08-17T10:49:23.542Z,16750.00
2022-08-17T10:50:23.534Z,20642.00
2022-08-17T10:51:23.537Z,13406.00
2022-08-17T10:52:24.978Z,5446.00
2022-08-17T10:53:23.506Z,27270.00
2022-08-17T10:54:23.500Z,12280.00
2022-08-17T10:55:23.491Z,9955.00
2022-08-17T10:56:23.485Z,7896.00
2022-08-17T10:57:23.470Z,6395.00
2022-08-17T10:58:23.461Z,5266.00
2022-08-17T10:59:23.867Z,24184.00
2022-08-17T11:00:29.496Z,20296.00
2022-08-17T11:01:23.533Z,9577.00
2022-08-17T11:02:23.634Z,79259.00
2022-08-17T11:03:23.421Z,71839.00
2022-08-17T11:04:23.423Z,20488.00
2022-08-17T11:05:29.616Z,29560.00
2022-08-17T11:06:23.804Z,7587.00
2022-08-17T11:07:23.385Z,11040.00
2022-08-17T11:08:23.382Z,23018.00
2022-08-17T11:09:23.391Z,12946.00
2022-08-17T11:10:23.557Z,80970.00
2022-08-17T11:11:23.350Z,75406.00
2022-08-17T11:12:23.344Z,82705.00
2022-08-17T11:13:23.340Z,80918.00
2022-08-17T11:14:23.328Z,80589.00
2022-08-17T11:16:08.223Z,81677.00
2022-08-17T11:17:06.306Z,81249.00
2022-08-17T11:18:08.558Z,81532.00
2022-08-17T11:19:04.493Z,79636.00
2022-08-17T11:20:04.281Z,78889.00
2022-08-17T11:21:04.677Z,79426.00
2022-08-17T11:22:04.264Z,79674.00
2022-08-17T11:23:04.257Z,81060.00
2022-08-17T11:24:05.026Z,83062.00
2022-08-17T11:25:05.492Z,82219.00
2022-08-17T11:26:04.438Z,80667.00
2022-08-17T11:27:12.384Z,81866.00
2022-08-17T11:28:04.637Z,83296.00
2022-08-17T11:29:11.269Z,82958.00
2022-08-17T11:30:10.269Z,82041.00
2022-08-17T11:31:04.212Z,81351.00
2022-08-17T11:32:04.195Z,82142.00
2022-08-17T11:33:04.198Z,80074.00
2022-08-17T11:34:04.381Z,78080.00
2022-08-17T11:35:10.383Z,78313.00
2022-08-17T11:36:04.373Z,79515.00
2022-08-17T11:37:10.181Z,62140.00
2022-08-17T11:38:04.165Z,11131.00
2022-08-17T11:39:10.159Z,8263.00
2022-08-17T11:40:04.200Z,80444.00
2022-08-17T11:41:04.148Z,78852.00
2022-08-17T11:42:06.398Z,79366.00
2022-08-17T11:43:04.135Z,82907.00
2022-08-17T11:44:04.122Z,79989.00
2022-08-17T11:45:04.121Z,80010.00
2022-08-17T11:46:04.310Z,82114.00
2022-08-17T11:47:04.104Z,83415.00
2022-08-17T11:48:27.241Z,82444.00
2022-08-17T11:49:05.137Z,82643.00
2022-08-17T11:50:04.087Z,80600.00
2022-08-17T11:51:06.131Z,82661.00
2022-08-17T11:52:04.075Z,71523.00
2022-08-17T11:53:10.088Z,14090.00
2022-08-17T11:54:31.022Z,74402.00
2022-08-17T11:55:31.809Z,60110.00
2022-08-17T11:56:05.085Z,9366.00
2022-08-17T11:57:04.047Z,5303.00
2022-08-17T11:58:04.038Z,3562.00
2022-08-17T11:59:04.239Z,28586.00
2022-08-17T12:00:04.232Z,29564.00
2022-08-17T12:01:06.152Z,10884.00
2022-08-17T12:02:04.016Z,8917.00
2022-08-17T12:03:04.021Z,5099.00
2022-08-17T12:04:04.084Z,82252.00
2022-08-17T12:05:04.194Z,79967.00
2022-08-17T12:06:03.984Z,77483.00
2022-08-17T12:07:03.980Z,75806.00
2022-08-17T12:08:03.974Z,76681.00
2022-08-17T12:09:10.397Z,78692.00
2022-08-17T12:10:04.166Z,76554.00
2022-08-17T12:11:03.960Z,76674.00
2022-08-17T12:12:13.133Z,76119.00
2022-08-17T12:13:09.948Z,76056.00
2022-08-17T12:14:03.934Z,75840.00
2022-08-17T12:15:11.529Z,76136.00
2022-08-17T12:16:03.923Z,59754.00
2022-08-17T12:17:03.916Z,8690.00
2022-08-17T12:18:04.112Z,5319.00
2022-08-17T12:20:07.204Z,13719.00
2022-08-17T12:21:08.208Z,6330.00
2022-08-17T12:22:06.964Z,80935.00
2022-08-17T12:23:12.965Z,63192.00
2022-08-17T12:24:08.954Z,18974.00
2022-08-17T12:25:09.354Z,7509.00
2022-08-17T12:26:06.935Z,4909.00
2022-08-17T12:27:13.348Z,83090.00
2022-08-17T12:28:07.811Z,79328.00
2022-08-17T12:29:07.121Z,80691.00
2022-08-17T12:30:06.945Z,80271.00
2022-08-17T12:31:06.905Z,80088.00
2022-08-17T12:32:07.341Z,82520.00
2022-08-17T12:33:07.101Z,82837.00
2022-08-17T12:34:06.887Z,78457.00
2022-08-17T12:35:06.911Z,76132.00
2022-08-17T12:36:06.881Z,75909.00
2022-08-17T12:38:00.155Z,80848.00